sensor_id;sensor_type;location;lat;lon;timestamp;pressure;altitude;pressure_sealevel;temperature;humidity
24422;BME280;12600;53.326;-6.298;2022-12-11T00:00:09;100610.41;;;3.57;90.17
24422;BME280;12600;53.326;-6.298;2022-12-11T00:02:58;100609.53;;;3.52;90.42
24422;BME280;12600;53.326;-6.298;2022-12-11T00:05:48;100605.53;;;3.54;90.34
24422;BME280;12600;53.326;-6.298;2022-12-11T00:08:38;100594.16;;;3.52;90.17
24422;BME280;12600;53.326;-6.298;2022-12-11T00:11:29;100606.88;;;3.57;90.70
24422;BME280;12600;53.326;-6.298;2022-12-11T00:14:18;100605.81;;;3.58;89.65
24422;BME280;12600;53.326;-6.298;2022-12-11T00:17:07;100594.72;;;3.59;90.06
24422;BME280;12600;53.326;-6.298;2022-12-11T00:19:57;100593.09;;;3.53;90.15
24422;BME280;12600;53.326;-6.298;2022-12-11T00:22:46;100600.66;;;3.56;90.28
24422;BME280;12600;53.326;-6.298;2022-12-11T00:25:41;100570.63;;;3.43;89.77
24422;BME280;12600;53.326;-6.298;2022-12-11T00:28:32;100578.72;;;3.43;90.38
24422;BME280;12600;53.326;-6.298;2022-12-11T00:31:22;100595.22;;;3.51;90.13
24422;BME280;12600;53.326;-6.298;2022-12-11T00:34:12;100572.19;;;3.33;90.35
24422;BME280;12600;53.326;-6.298;2022-12-11T00:37:01;100572.19;;;3.33;90.25
24422;BME280;12600;53.326;-6.298;2022-12-11T00:39:51;100581.44;;;3.43;90.27
24422;BME280;12600;53.326;-6.298;2022-12-11T00:42:40;100583.34;;;3.52;89.94
24422;BME280;12600;53.326;-6.298;2022-12-11T00:45:35;100585.25;;;3.52;90.29
24422;BME280;12600;53.326;-6.298;2022-12-11T00:48:25;100594.19;;;3.57;90.14
24422;BME280;12600;53.326;-6.298;2022-12-11T00:51:14;100589.03;;;3.51;89.83
24422;BME280;12600;53.326;-6.298;2022-12-11T00:54:04;100600.94;;;3.55;89.67
24422;BME280;12600;53.326;-6.298;2022-12-11T00:56:54;100594.94;;;3.43;89.50
24422;BME280;12600;53.326;-6.298;2022-12-11T00:59:44;100577.59;;;3.33;89.51
24422;BME280;12600;53.326;-6.298;2022-12-11T01:02:34;100595.72;;;3.38;89.40
24422;BME280;12600;53.326;-6.298;2022-12-11T01:05:24;100597.03;;;3.35;89.48
24422;BME280;12600;53.326;-6.298;2022-12-11T01:08:13;100599.22;;;3.33;89.65
24422;BME280;12600;53.326;-6.298;2022-12-11T01:11:05;100599.47;;;3.32;89.95
24422;BME280;12600;53.326;-6.298;2022-12-11T01:13:54;100583.22;;;3.27;89.46
24422;BME280;12600;53.326;-6.298;2022-12-11T01:16:44;100589.22;;;3.29;90.02
24422;BME280;12600;53.326;-6.298;2022-12-11T01:19:34;100582.44;;;3.26;89.91
24422;BME280;12600;53.326;-6.298;2022-12-11T01:22:24;100582.97;;;3.23;89.70
24422;BME280;12600;53.326;-6.298;2022-12-11T01:25:13;100581.91;;;3.29;90.43
24422;BME280;12600;53.326;-6.298;2022-12-11T01:28:03;100582.72;;;3.30;90.11
24422;BME280;12600;53.326;-6.298;2022-12-11T01:30:53;100578.66;;;3.27;90.69
24422;BME280;12600;53.326;-6.298;2022-12-11T01:33:43;100579.72;;;3.26;90.08
24422;BME280;12600;53.326;-6.298;2022-12-11T01:36:34;100580.28;;;3.28;89.63
24422;BME280;12600;53.326;-6.298;2022-12-11T01:39:23;100579.19;;;3.24;89.72
24422;BME280;12600;53.326;-6.298;2022-12-11T01:42:16;100569.69;;;3.17;90.28
24422;BME280;12600;53.326;-6.298;2022-12-11T01:45:31;100575.34;;;3.15;90.29
24422;BME280;12600;53.326;-6.298;2022-12-11T01:48:23;100575.63;;;3.19;90.35
24422;BME280;12600;53.326;-6.298;2022-12-11T01:51:13;100579.44;;;3.23;89.91
24422;BME280;12600;53.326;-6.298;2022-12-11T01:54:09;100579.19;;;3.24;89.87
24422;BME280;12600;53.326;-6.298;2022-12-11T01:57:03;100580.28;;;3.28;90.26
24422;BME280;12600;53.326;-6.298;2022-12-11T01:59:52;100574.38;;;3.31;90.20
24422;BME280;12600;53.326;-6.298;2022-12-11T02:02:42;100569.16;;;3.20;90.35
24422;BME280;12600;53.326;-6.298;2022-12-11T02:05:32;100558.94;;;3.22;90.23
24422;BME280;12600;53.326;-6.298;2022-12-11T02:08:22;100564.34;;;3.22;90.20
24422;BME280;12600;53.326;-6.298;2022-12-11T02:11:19;100553.25;;;3.23;90.41
24422;BME280;12600;53.326;-6.298;2022-12-11T02:14:15;100553.81;;;3.25;90.25
24422;BME280;12600;53.326;-6.298;2022-12-11T02:17:12;100557.31;;;3.26;90.30
24422;BME280;12600;53.326;-6.298;2022-12-11T02:20:10;100556.78;;;3.24;90.02
24422;BME280;12600;53.326;-6.298;2022-12-11T02:23:23;100570.00;;;3.25;89.84
24422;BME280;12600;53.326;-6.298;2022-12-11T02:26:46;100567.84;;;3.27;90.17
24422;BME280;12600;53.326;-6.298;2022-12-11T02:29:47;100585.13;;;3.21;90.61
24422;BME280;12600;53.326;-6.298;2022-12-11T02:32:42;100591.31;;;3.22;90.76
24422;BME280;12600;53.326;-6.298;2022-12-11T02:35:37;100592.59;;;3.09;90.63
24422;BME280;12600;53.326;-6.298;2022-12-11T02:38:32;100591.03;;;3.18;91.03
24422;BME280;12600;53.326;-6.298;2022-12-11T02:41:23;100589.69;;;3.21;90.27
24422;BME280;12600;53.326;-6.298;2022-12-11T02:44:18;100590.50;;;3.21;90.18
24422;BME280;12600;53.326;-6.298;2022-12-11T02:47:13;100591.84;;;3.19;90.07
24422;BME280;12600;53.326;-6.298;2022-12-11T02:50:09;100602.09;;;3.17;90.19
24422;BME280;12600;53.326;-6.298;2022-12-11T02:53:01;100599.38;;;3.17;90.45
24422;BME280;12600;53.326;-6.298;2022-12-11T02:55:57;100590.75;;;3.15;90.51
24422;BME280;12600;53.326;-6.298;2022-12-11T02:58:54;100583.97;;;3.12;90.05
24422;BME280;12600;53.326;-6.298;2022-12-11T03:01:46;100587.22;;;3.14;89.88
24422;BME280;12600;53.326;-6.298;2022-12-11T03:04:37;100576.44;;;3.14;90.22
24422;BME280;12600;53.326;-6.298;2022-12-11T03:07:33;100569.41;;;3.13;90.11
24422;BME280;12600;53.326;-6.298;2022-12-11T03:10:23;100575.91;;;3.17;90.07
24422;BME280;12600;53.326;-6.298;2022-12-11T03:13:13;100568.84;;;3.11;90.18
24422;BME280;12600;53.326;-6.298;2022-12-11T03:16:13;100568.84;;;3.11;90.29
24422;BME280;12600;53.326;-6.298;2022-12-11T03:19:11;100561.56;;;3.12;90.56
24422;BME280;12600;53.326;-6.298;2022-12-11T03:22:11;100566.19;;;3.16;90.40
24422;BME280;12600;53.326;-6.298;2022-12-11T03:25:06;100577.56;;;3.23;90.06
24422;BME280;12600;53.326;-6.298;2022-12-11T03:28:03;100577.56;;;3.23;90.04
24422;BME280;12600;53.326;-6.298;2022-12-11T03:30:56;100571.34;;;3.23;90.07
24422;BME280;12600;53.326;-6.298;2022-12-11T03:33:47;100567.84;;;3.22;89.77
24422;BME280;12600;53.326;-6.298;2022-12-11T03:36:39;100560.81;;;3.21;89.84
24422;BME280;12600;53.326;-6.298;2022-12-11T03:39:34;100567.53;;;3.19;89.84
24422;BME280;12600;53.326;-6.298;2022-12-11T03:42:26;100560.50;;;3.18;90.14
24422;BME280;12600;53.326;-6.298;2022-12-11T03:45:17;100553.72;;;3.10;89.96
24422;BME280;12600;53.326;-6.298;2022-12-11T03:48:08;100567.81;;;3.17;90.38
24422;BME280;12600;53.326;-6.298;2022-12-11T03:50:59;100569.16;;;3.15;90.28
24422;BME280;12600;53.326;-6.298;2022-12-11T03:53:50;100565.63;;;3.14;89.83
24422;BME280;12600;53.326;-6.298;2022-12-11T03:56:42;100570.47;;;3.12;90.10
24422;BME280;12600;53.326;-6.298;2022-12-11T03:59:33;100566.72;;;3.13;90.66
24422;BME280;12600;53.326;-6.298;2022-12-11T04:02:23;100562.91;;;3.09;90.16
24422;BME280;12600;53.326;-6.298;2022-12-11T04:05:12;100564.78;;;3.08;90.43
24422;BME280;12600;53.326;-6.298;2022-12-11T04:08:01;100570.97;;;3.04;90.27
24422;BME280;12600;53.326;-6.298;2022-12-11T04:10:51;100553.41;;;3.01;90.61
24422;BME280;12600;53.326;-6.298;2022-12-11T04:14:03;100556.09;;;3.01;90.42
24422;BME280;12600;53.326;-6.298;2022-12-11T04:17:10;100556.09;;;3.01;90.31
24422;BME280;12600;53.326;-6.298;2022-12-11T04:20:20;100563.72;;;3.09;90.94
24422;BME280;12600;53.326;-6.298;2022-12-11T04:23:27;100561.28;;;3.08;90.92
24422;BME280;12600;53.326;-6.298;2022-12-11T04:26:33;100572.13;;;3.13;90.01
24422;BME280;12600;53.326;-6.298;2022-12-11T04:29:24;100578.56;;;3.12;90.48
24422;BME280;12600;53.326;-6.298;2022-12-11T04:32:14;100567.00;;;3.17;90.12
24422;BME280;12600;53.326;-6.298;2022-12-11T04:35:05;100571.56;;;3.16;90.21
24422;BME280;12600;53.326;-6.298;2022-12-11T04:37:55;100569.91;;;3.05;89.68
24422;BME280;12600;53.326;-6.298;2022-12-11T04:40:45;100565.00;;;3.02;90.05
24422;BME280;12600;53.326;-6.298;2022-12-11T04:43:35;100547.16;;;2.96;90.43
24422;BME280;12600;53.326;-6.298;2022-12-11T04:46:26;100558.00;;;3.01;90.85
24422;BME280;12600;53.326;-6.298;2022-12-11T04:49:15;100563.94;;;2.98;90.42
24422;BME280;12600;53.326;-6.298;2022-12-11T04:52:05;100552.06;;;2.99;90.21
24422;BME280;12600;53.326;-6.298;2022-12-11T04:54:54;100546.13;;;3.02;90.43
24422;BME280;12600;53.326;-6.298;2022-12-11T04:57:43;100543.69;;;3.00;90.43
24422;BME280;12600;53.326;-6.298;2022-12-11T05:00:33;100545.28;;;2.96;90.14
24422;BME280;12600;53.326;-6.298;2022-12-11T05:03:24;100538.47;;;2.89;89.98
24422;BME280;12600;53.326;-6.298;2022-12-11T05:06:14;100536.53;;;2.79;90.19
24422;BME280;12600;53.326;-6.298;2022-12-11T05:09:03;100548.72;;;2.82;90.13
24422;BME280;12600;53.326;-6.298;2022-12-11T05:11:53;100547.59;;;2.77;90.30
24422;BME280;12600;53.326;-6.298;2022-12-11T05:14:42;100542.94;;;2.68;89.82
24422;BME280;12600;53.326;-6.298;2022-12-11T05:17:32;100548.63;;;2.66;90.26
24422;BME280;12600;53.326;-6.298;2022-12-11T05:20:23;100560.75;;;2.69;90.20
24422;BME280;12600;53.326;-6.298;2022-12-11T05:23:12;100565.63;;;2.72;90.40
24422;BME280;12600;53.326;-6.298;2022-12-11T05:26:06;100567.56;;;2.76;89.90
24422;BME280;12600;53.326;-6.298;2022-12-11T05:28:55;100576.19;;;2.78;90.19
24422;BME280;12600;53.326;-6.298;2022-12-11T05:31:45;100566.00;;;2.86;90.24
24422;BME280;12600;53.326;-6.298;2022-12-11T05:34:34;100572.75;;;2.88;90.50
24422;BME280;12600;53.326;-6.298;2022-12-11T05:37:25;100571.97;;;2.93;90.08
24422;BME280;12600;53.326;-6.298;2022-12-11T05:40:15;100550.03;;;2.79;89.42
24422;BME280;12600;53.326;-6.298;2022-12-11T05:43:04;100573.59;;;2.94;89.86
24422;BME280;12600;53.326;-6.298;2022-12-11T05:45:53;100564.69;;;2.93;89.81
24422;BME280;12600;53.326;-6.298;2022-12-11T05:48:45;100570.41;;;2.97;90.01
24422;BME280;12600;53.326;-6.298;2022-12-11T05:51:35;100573.66;;;2.99;89.69
24422;BME280;12600;53.326;-6.298;2022-12-11T05:54:27;100583.63;;;3.03;89.68
24422;BME280;12600;53.326;-6.298;2022-12-11T05:57:17;100573.38;;;3.00;89.55
24422;BME280;12600;53.326;-6.298;2022-12-11T06:00:08;100582.31;;;3.06;89.42
24422;BME280;12600;53.326;-6.298;2022-12-11T06:02:58;100569.38;;;3.08;89.76
24422;BME280;12600;53.326;-6.298;2022-12-11T06:05:47;100578.56;;;3.07;89.88
24422;BME280;12600;53.326;-6.298;2022-12-11T06:08:37;100577.47;;;3.08;89.67
24422;BME280;12600;53.326;-6.298;2022-12-11T06:11:30;100567.72;;;3.02;89.28
24422;BME280;12600;53.326;-6.298;2022-12-11T06:14:20;100583.16;;;3.12;89.53
24422;BME280;12600;53.326;-6.298;2022-12-11T06:17:09;100582.59;;;3.09;89.05
24422;BME280;12600;53.326;-6.298;2022-12-11T06:19:59;100584.44;;;3.04;89.11
24422;BME280;12600;53.326;-6.298;2022-12-11T06:22:48;100580.63;;;2.95;88.58
24422;BME280;12600;53.326;-6.298;2022-12-11T06:25:38;100585.16;;;2.84;89.12
24422;BME280;12600;53.326;-6.298;2022-12-11T06:28:29;100591.91;;;2.87;89.34
24422;BME280;12600;53.326;-6.298;2022-12-11T06:31:19;100573.22;;;2.80;89.51
24422;BME280;12600;53.326;-6.298;2022-12-11T06:34:11;100584.84;;;2.80;89.45
24422;BME280;12600;53.326;-6.298;2022-12-11T06:37:00;100579.75;;;2.84;89.90
24422;BME280;12600;53.326;-6.298;2022-12-11T06:39:50;100589.19;;;2.87;89.53
24422;BME280;12600;53.326;-6.298;2022-12-11T06:42:39;100585.44;;;2.88;89.30
24422;BME280;12600;53.326;-6.298;2022-12-11T06:45:30;100580.59;;;2.90;89.52
24422;BME280;12600;53.326;-6.298;2022-12-11T06:48:19;100569.00;;;2.89;89.70
24422;BME280;12600;53.326;-6.298;2022-12-11T06:51:11;100579.53;;;2.96;89.35
24422;BME280;12600;53.326;-6.298;2022-12-11T06:54:00;100573.09;;;2.97;89.65
24422;BME280;12600;53.326;-6.298;2022-12-11T06:56:50;100569.81;;;2.95;89.56
24422;BME280;12600;53.326;-6.298;2022-12-11T06:59:39;100566.34;;;2.99;89.63
24422;BME280;12600;53.326;-6.298;2022-12-11T07:02:30;100572.31;;;3.01;89.67
24422;BME280;12600;53.326;-6.298;2022-12-11T07:05:19;100570.41;;;2.97;89.54
24422;BME280;12600;53.326;-6.298;2022-12-11T07:08:09;100570.13;;;2.98;89.72
24422;BME280;12600;53.326;-6.298;2022-12-11T07:11:03;100573.66;;;2.99;89.50
24422;BME280;12600;53.326;-6.298;2022-12-11T07:13:52;100572.56;;;3.00;89.62
24422;BME280;12600;53.326;-6.298;2022-12-11T07:16:42;100564.44;;;2.95;89.91
24422;BME280;12600;53.326;-6.298;2022-12-11T07:19:33;100548.44;;;2.83;89.65
24422;BME280;12600;53.326;-6.298;2022-12-11T07:22:22;100566.31;;;2.89;89.06
24422;BME280;12600;53.326;-6.298;2022-12-11T07:25:12;100558.69;;;2.81;89.15
24422;BME280;12600;53.326;-6.298;2022-12-11T07:28:02;100576.25;;;2.89;89.36
24422;BME280;12600;53.326;-6.298;2022-12-11T07:30:51;100584.34;;;2.84;89.31
24422;BME280;12600;53.326;-6.298;2022-12-11T07:33:42;100587.84;;;2.84;89.01
24422;BME280;12600;53.326;-6.298;2022-12-11T07:36:33;100573.75;;;2.77;89.40
24422;BME280;12600;53.326;-6.298;2022-12-11T07:39:23;100588.38;;;2.81;89.19
24422;BME280;12600;53.326;-6.298;2022-12-11T07:42:12;100594.06;;;2.85;89.14
24422;BME280;12600;53.326;-6.298;2022-12-11T07:45:01;100592.97;;;2.86;89.53
24422;BME280;12600;53.326;-6.298;2022-12-11T07:47:51;100587.59;;;2.86;89.10
24422;BME280;12600;53.326;-6.298;2022-12-11T07:50:41;100582.19;;;2.86;89.01
24422;BME280;12600;53.326;-6.298;2022-12-11T07:53:31;100585.97;;;2.85;89.15
24422;BME280;12600;53.326;-6.298;2022-12-11T07:56:21;100586.38;;;2.66;88.92
24422;BME280;12600;53.326;-6.298;2022-12-11T07:59:11;100598.81;;;2.72;89.07
24422;BME280;12600;53.326;-6.298;2022-12-11T08:02:00;100601.47;;;2.67;89.01
24422;BME280;12600;53.326;-6.298;2022-12-11T08:04:50;100523.13;;;2.15;88.94
24422;BME280;12600;53.326;-6.298;2022-12-11T08:07:39;100597.06;;;2.56;88.83
24422;BME280;12600;53.326;-6.298;2022-12-11T08:10:31;100600.81;;;2.55;89.07
24422;BME280;12600;53.326;-6.298;2022-12-11T08:13:20;100594.88;;;2.53;89.05
24422;BME280;12600;53.326;-6.298;2022-12-11T08:16:13;100597.53;;;2.48;89.14
24422;BME280;12600;53.326;-6.298;2022-12-11T08:19:02;100596.97;;;2.46;88.76
24422;BME280;12600;53.326;-6.298;2022-12-11T08:21:52;100596.91;;;2.36;88.75
24422;BME280;12600;53.326;-6.298;2022-12-11T08:24:41;100606.09;;;2.40;89.00
24422;BME280;12600;53.326;-6.298;2022-12-11T08:27:32;100598.47;;;2.32;89.01
24422;BME280;12600;53.326;-6.298;2022-12-11T08:30:22;100605.03;;;2.41;89.01
24422;BME280;12600;53.326;-6.298;2022-12-11T08:33:11;100608.78;;;2.40;88.81
24422;BME280;12600;53.326;-6.298;2022-12-11T08:36:02;100616.88;;;2.40;88.58
24422;BME280;12600;53.326;-6.298;2022-12-11T08:38:54;100607.13;;;2.34;88.57
24422;BME280;12600;53.326;-6.298;2022-12-11T08:41:44;100597.84;;;2.24;88.59
24422;BME280;12600;53.326;-6.298;2022-12-11T08:44:34;100614.16;;;2.35;88.34
24422;BME280;12600;53.326;-6.298;2022-12-11T08:47:24;100617.09;;;2.33;88.23
24422;BME280;12600;53.326;-6.298;2022-12-11T08:50:13;100622.50;;;2.33;88.19
24422;BME280;12600;53.326;-6.298;2022-12-11T08:53:03;100611.41;;;2.30;88.02
24422;BME280;12600;53.326;-6.298;2022-12-11T08:55:52;100622.69;;;2.27;87.96
24422;BME280;12600;53.326;-6.298;2022-12-11T08:58:42;100607.28;;;2.22;88.01
24422;BME280;12600;53.326;-6.298;2022-12-11T09:01:32;100622.97;;;2.25;88.42
24422;BME280;12600;53.326;-6.298;2022-12-11T09:04:22;100632.34;;;2.22;87.86
24422;BME280;12600;53.326;-6.298;2022-12-11T09:07:11;100635.31;;;2.21;87.89
24422;BME280;12600;53.326;-6.298;2022-12-11T09:10:01;100633.69;;;2.20;87.96
24422;BME280;12600;53.326;-6.298;2022-12-11T09:12:50;100625.28;;;2.16;88.13
24422;BME280;12600;53.326;-6.298;2022-12-11T09:15:40;100633.41;;;2.21;87.86
24422;BME280;12600;53.326;-6.298;2022-12-11T09:18:31;100624.72;;;2.14;88.07
24422;BME280;12600;53.326;-6.298;2022-12-11T09:21:23;100632.91;;;2.24;88.47
24422;BME280;12600;53.326;-6.298;2022-12-11T09:24:13;100638.88;;;2.27;88.76
24422;BME280;12600;53.326;-6.298;2022-12-11T09:27:02;100630.00;;;2.31;88.75
24422;BME280;12600;53.326;-6.298;2022-12-11T09:29:52;100628.63;;;2.29;88.66
24422;BME280;12600;53.326;-6.298;2022-12-11T09:32:41;100641.94;;;2.40;89.18
24422;BME280;12600;53.326;-6.298;2022-12-11T09:35:32;100626.34;;;2.42;89.21
24422;BME280;12600;53.326;-6.298;2022-12-11T09:38:21;100632.63;;;2.53;89.13
24422;BME280;12600;53.326;-6.298;2022-12-11T09:41:32;100632.97;;;2.62;88.92
24422;BME280;12600;53.326;-6.298;2022-12-11T09:44:42;100639.88;;;2.79;89.10
24422;BME280;12600;53.326;-6.298;2022-12-11T09:47:36;100642.34;;;2.86;88.84
24422;BME280;12600;53.326;-6.298;2022-12-11T09:50:32;100642.94;;;2.93;88.37
24422;BME280;12600;53.326;-6.298;2022-12-11T09:53:28;100641.63;;;2.96;88.77
24422;BME280;12600;53.326;-6.298;2022-12-11T09:56:25;100636.53;;;3.04;88.97
24422;BME280;12600;53.326;-6.298;2022-12-11T09:59:25;100635.28;;;3.17;88.82
24422;BME280;12600;53.326;-6.298;2022-12-11T10:02:26;100644.31;;;3.33;88.71
24422;BME280;12600;53.326;-6.298;2022-12-11T10:05:32;100648.44;;;3.51;89.37
24422;BME280;12600;53.326;-6.298;2022-12-11T10:08:32;100648.47;;;3.56;87.56
24422;BME280;12600;53.326;-6.298;2022-12-11T10:11:52;100649.13;;;3.78;88.17
24422;BME280;12600;53.326;-6.298;2022-12-11T10:15:04;100641.31;;;3.87;87.22
24422;BME280;12600;53.326;-6.298;2022-12-11T10:17:59;100642.72;;;3.95;87.55
24422;BME280;12600;53.326;-6.298;2022-12-11T10:20:54;100630.28;;;3.93;87.40
24422;BME280;12600;53.326;-6.298;2022-12-11T10:23:48;100631.59;;;3.91;87.29
24422;BME280;12600;53.326;-6.298;2022-12-11T10:26:39;100628.63;;;3.87;87.19
24422;BME280;12600;53.326;-6.298;2022-12-11T10:29:28;100632.38;;;3.81;87.33
24422;BME280;12600;53.326;-6.298;2022-12-11T10:32:22;100642.09;;;3.77;86.91
24422;BME280;12600;53.326;-6.298;2022-12-11T10:35:26;100649.88;;;3.69;86.79
24422;BME280;12600;53.326;-6.298;2022-12-11T10:38:25;100648.25;;;3.62;87.22
24422;BME280;12600;53.326;-6.298;2022-12-11T10:41:18;100653.34;;;3.59;86.76
24422;BME280;12600;53.326;-6.298;2022-12-11T10:44:18;100648.16;;;3.47;87.41
24422;BME280;12600;53.326;-6.298;2022-12-11T10:47:10;100648.34;;;3.30;87.05
24422;BME280;12600;53.326;-6.298;2022-12-11T10:50:03;100644.25;;;3.23;87.36
24422;BME280;12600;53.326;-6.298;2022-12-11T10:52:52;100654.78;;;3.24;87.53
24422;BME280;12600;53.326;-6.298;2022-12-11T10:55:45;100631.47;;;3.08;88.04
24422;BME280;12600;53.326;-6.298;2022-12-11T10:58:46;100640.16;;;3.15;87.95
24422;BME280;12600;53.326;-6.298;2022-12-11T11:01:37;100643.38;;;3.17;88.02
24422;BME280;12600;53.326;-6.298;2022-12-11T11:04:29;100637.19;;;3.17;88.04
24422;BME280;12600;53.326;-6.298;2022-12-11T11:07:22;100630.72;;;3.18;88.50
24422;BME280;12600;53.326;-6.298;2022-12-11T11:10:17;100640.97;;;3.21;88.71
24422;BME280;12600;53.326;-6.298;2022-12-11T11:13:12;100638.25;;;3.16;87.59
24422;BME280;12600;53.326;-6.298;2022-12-11T11:16:04;100636.91;;;3.13;87.92
24422;BME280;12600;53.326;-6.298;2022-12-11T11:18:57;100630.38;;;3.09;87.83
24422;BME280;12600;53.326;-6.298;2022-12-11T11:21:50;100622.81;;;3.06;88.64
24422;BME280;12600;53.326;-6.298;2022-12-11T11:24:42;100623.09;;;3.09;88.32
24422;BME280;12600;53.326;-6.298;2022-12-11T11:27:37;100635.88;;;3.24;88.42
24422;BME280;12600;53.326;-6.298;2022-12-11T11:30:35;100632.16;;;3.30;88.22
24422;BME280;12600;53.326;-6.298;2022-12-11T11:33:25;100636.50;;;3.42;88.09
24422;BME280;12600;53.326;-6.298;2022-12-11T11:36:20;100623.81;;;3.42;87.69
24422;BME280;12600;53.326;-6.298;2022-12-11T11:39:19;100626.78;;;3.41;87.67
24422;BME280;12600;53.326;-6.298;2022-12-11T11:42:16;100637.06;;;3.44;87.28
24422;BME280;12600;53.326;-6.298;2022-12-11T11:45:11;100625.66;;;3.31;87.57
24422;BME280;12600;53.326;-6.298;2022-12-11T11:48:20;100611.63;;;3.34;87.96
24422;BME280;12600;53.326;-6.298;2022-12-11T11:51:15;100617.00;;;3.92;89.13
24422;BME280;12600;53.326;-6.298;2022-12-11T11:54:20;100609.84;;;4.89;89.17
24422;BME280;12600;53.326;-6.298;2022-12-11T11:57:16;100607.38;;;5.88;85.96
24422;BME280;12600;53.326;-6.298;2022-12-11T12:00:18;100618.00;;;6.97;86.53
24422;BME280;12600;53.326;-6.298;2022-12-11T12:03:12;100612.06;;;7.48;79.94
24422;BME280;12600;53.326;-6.298;2022-12-11T12:06:09;100617.63;;;8.04;81.79
24422;BME280;12600;53.326;-6.298;2022-12-11T12:09:17;100617.88;;;8.46;82.09
24422;BME280;12600;53.326;-6.298;2022-12-11T12:12:16;100615.88;;;8.51;78.57
24422;BME280;12600;53.326;-6.298;2022-12-11T12:15:27;100614.28;;;8.07;74.69
24422;BME280;12600;53.326;-6.298;2022-12-11T12:18:26;100617.38;;;7.82;77.14
24422;BME280;12600;53.326;-6.298;2022-12-11T12:21:27;100620.31;;;7.38;79.20
24422;BME280;12600;53.326;-6.298;2022-12-11T12:24:28;100611.53;;;6.93;80.63
24422;BME280;12600;53.326;-6.298;2022-12-11T12:27:30;100609.25;;;6.42;79.63
24422;BME280;12600;53.326;-6.298;2022-12-11T12:30:48;100602.75;;;5.88;79.63
24422;BME280;12600;53.326;-6.298;2022-12-11T12:33:55;100602.34;;;5.56;81.31
24422;BME280;12600;53.326;-6.298;2022-12-11T12:36:55;100585.13;;;5.11;80.31
24422;BME280;12600;53.326;-6.298;2022-12-11T12:39:58;100594.09;;;5.01;81.97
24422;BME280;12600;53.326;-6.298;2022-12-11T12:42:56;100584.38;;;4.85;82.81
24422;BME280;12600;53.326;-6.298;2022-12-11T12:45:58;100586.28;;;4.69;82.80
24422;BME280;12600;53.326;-6.298;2022-12-11T12:48:55;100587.91;;;4.65;83.69
24422;BME280;12600;53.326;-6.298;2022-12-11T12:51:46;100577.88;;;4.56;84.41
24422;BME280;12600;53.326;-6.298;2022-12-11T12:54:36;100565.44;;;4.44;84.33
24422;BME280;12600;53.326;-6.298;2022-12-11T12:57:26;100593.03;;;4.46;83.79
24422;BME280;12600;53.326;-6.298;2022-12-11T13:00:31;100584.91;;;4.57;85.30
24422;BME280;12600;53.326;-6.298;2022-12-11T13:03:24;100585.19;;;4.55;84.89
24422;BME280;12600;53.326;-6.298;2022-12-11T13:06:33;100579.25;;;4.58;84.26
24422;BME280;12600;53.326;-6.298;2022-12-11T13:09:25;100587.38;;;4.73;83.87
24422;BME280;12600;53.326;-6.298;2022-12-11T13:12:40;100591.41;;;4.91;85.14
24422;BME280;12600;53.326;-6.298;2022-12-11T13:15:34;100602.50;;;5.00;84.55
24422;BME280;12600;53.326;-6.298;2022-12-11T13:18:33;100598.97;;;4.99;83.97
24422;BME280;12600;53.326;-6.298;2022-12-11T13:21:30;100594.41;;;4.90;83.04
24422;BME280;12600;53.326;-6.298;2022-12-11T13:24:25;100599.25;;;4.72;82.46
24422;BME280;12600;53.326;-6.298;2022-12-11T13:27:24;100597.91;;;4.55;82.52
24422;BME280;12600;53.326;-6.298;2022-12-11T13:30:23;100590.88;;;4.54;83.85
24422;BME280;12600;53.326;-6.298;2022-12-11T13:33:16;100589.78;;;4.44;83.97
24422;BME280;12600;53.326;-6.298;2022-12-11T13:36:29;100584.91;;;4.21;83.75
24422;BME280;12600;53.326;-6.298;2022-12-11T13:39:22;100593.53;;;4.08;83.95
24422;BME280;12600;53.326;-6.298;2022-12-11T13:42:24;100582.94;;;3.91;84.33
24422;BME280;12600;53.326;-6.298;2022-12-11T13:45:23;100593.50;;;3.98;84.49
24422;BME280;12600;53.326;-6.298;2022-12-11T13:48:20;100595.91;;;3.89;84.65
24422;BME280;12600;53.326;-6.298;2022-12-11T13:51:16;100597.28;;;3.91;85.52
24422;BME280;12600;53.326;-6.298;2022-12-11T13:54:15;100610.28;;;3.95;84.83
24422;BME280;12600;53.326;-6.298;2022-12-11T13:57:16;100602.44;;;3.93;84.78
24422;BME280;12600;53.326;-6.298;2022-12-11T14:00:21;100602.69;;;3.86;85.10
24422;BME280;12600;53.326;-6.298;2022-12-11T14:03:10;100598.91;;;3.87;85.06
24422;BME280;12600;53.326;-6.298;2022-12-11T14:06:01;100601.03;;;3.80;84.90
24422;BME280;12600;53.326;-6.298;2022-12-11T14:08:53;100590.19;;;3.70;85.09
24422;BME280;12600;53.326;-6.298;2022-12-11T14:11:46;100596.09;;;3.67;85.66
24422;BME280;12600;53.326;-6.298;2022-12-11T14:14:46;100589.34;;;3.64;86.25
24422;BME280;12600;53.326;-6.298;2022-12-11T14:17:41;100593.09;;;3.58;85.86
24422;BME280;12600;53.326;-6.298;2022-12-11T14:20:38;100587.19;;;3.61;85.77
24422;BME280;12600;53.326;-6.298;2022-12-11T14:23:29;100597.72;;;3.63;85.71
24422;BME280;12600;53.326;-6.298;2022-12-11T14:26:21;100587.44;;;3.60;85.96
24422;BME280;12600;53.326;-6.298;2022-12-11T14:29:27;100590.63;;;3.47;86.10
24422;BME280;12600;53.326;-6.298;2022-12-11T14:32:22;100586.00;;;3.37;86.11
24422;BME280;12600;53.326;-6.298;2022-12-11T14:35:24;100577.28;;;3.25;86.72
24422;BME280;12600;53.326;-6.298;2022-12-11T14:38:18;100588.06;;;3.20;86.86
24422;BME280;12600;53.326;-6.298;2022-12-11T14:41:15;100595.88;;;3.16;87.24
24422;BME280;12600;53.326;-6.298;2022-12-11T14:44:15;100593.22;;;3.21;87.40
24422;BME280;12600;53.326;-6.298;2022-12-11T14:47:12;100590.16;;;3.13;87.75
24422;BME280;12600;53.326;-6.298;2022-12-11T14:50:07;100585.84;;;3.12;87.35
24422;BME280;12600;53.326;-6.298;2022-12-11T14:53:01;100591.25;;;3.12;86.93
24422;BME280;12600;53.326;-6.298;2022-12-11T14:55:52;100591.25;;;3.12;87.02
24422;BME280;12600;53.326;-6.298;2022-12-11T14:58:52;100589.09;;;3.08;86.95
24422;BME280;12600;53.326;-6.298;2022-12-11T15:01:44;100589.03;;;2.98;87.65
24422;BME280;12600;53.326;-6.298;2022-12-11T15:04:57;100587.13;;;2.99;87.00
24422;BME280;12600;53.326;-6.298;2022-12-11T15:07:56;100571.69;;;2.89;87.58